sensor_id;sensor_type;location;lat;lon;timestamp;pressure;altitude;pressure_sealevel;temperature;humidity
26436;BME280;15351;52.408;16.826;2023-03-18T00:02:05;100780.90;;;7.40;51.60
26436;BME280;15351;52.408;16.826;2023-03-18T00:04:33;100780.66;;;7.39;51.58
26436;BME280;15351;52.408;16.826;2023-03-18T00:07:00;100776.59;;;7.36;51.57
26436;BME280;15351;52.408;16.826;2023-03-18T00:09:31;100780.36;;;7.37;51.51
26436;BME280;15351;52.408;16.826;2023-03-18T00:12:01;100781.76;;;7.33;51.53
26436;BME280;15351;52.408;16.826;2023-03-18T00:14:27;100779.20;;;7.30;51.68
26436;BME280;15351;52.408;16.826;2023-03-18T00:16:54;100775.40;;;7.29;51.75
26436;BME280;15351;52.408;16.826;2023-03-18T00:19:23;100771.50;;;7.28;51.74
26436;BME280;15351;52.408;16.826;2023-03-18T00:21:58;100771.45;;;7.29;51.86
26436;BME280;15351;52.408;16.826;2023-03-18T00:24:25;100770.16;;;7.26;52.03
26436;BME280;15351;52.408;16.826;2023-03-18T00:26:58;100773.79;;;7.24;51.84
26436;BME280;15351;52.408;16.826;2023-03-18T00:29:25;100772.20;;;7.22;51.99
26436;BME280;15351;52.408;16.826;2023-03-18T00:31:53;100765.70;;;7.21;51.97
26436;BME280;15351;52.408;16.826;2023-03-18T00:34:20;100762.41;;;7.19;52.00
26436;BME280;15351;52.408;16.826;2023-03-18T00:36:48;100759.73;;;7.18;52.17
26436;BME280;15351;52.408;16.826;2023-03-18T00:39:23;100759.83;;;7.15;52.12
26436;BME280;15351;52.408;16.826;2023-03-18T00:41:57;100750.53;;;7.11;52.21
26436;BME280;15351;52.408;16.826;2023-03-18T00:44:25;100751.78;;;7.11;52.32
26436;BME280;15351;52.408;16.826;2023-03-18T00:46:52;100752.98;;;7.08;52.31
26436;BME280;15351;52.408;16.826;2023-03-18T00:49:18;100748.27;;;7.07;52.27
26436;BME280;15351;52.408;16.826;2023-03-18T00:51:48;100749.41;;;7.05;52.33
26436;BME280;15351;52.408;16.826;2023-03-18T00:54:22;100751.42;;;7.04;52.47
26436;BME280;15351;52.408;16.826;2023-03-18T00:57:02;100749.44;;;7.04;52.28
26436;BME280;15351;52.408;16.826;2023-03-18T00:59:56;100743.42;;;7.03;52.38
26436;BME280;15351;52.408;16.826;2023-03-18T01:02:26;100734.56;;;6.99;52.27
26436;BME280;15351;52.408;16.826;2023-03-18T01:05:01;100734.73;;;6.95;52.19
26436;BME280;15351;52.408;16.826;2023-03-18T01:07:44;100735.60;;;6.94;52.30
26436;BME280;15351;52.408;16.826;2023-03-18T01:10:37;100729.40;;;6.92;52.21
26436;BME280;15351;52.408;16.826;2023-03-18T01:13:03;100728.56;;;6.89;52.30
26436;BME280;15351;52.408;16.826;2023-03-18T01:18:40;100727.03;;;6.88;52.20
26436;BME280;15351;52.408;16.826;2023-03-18T01:21:20;100726.15;;;6.86;52.38
26436;BME280;15351;52.408;16.826;2023-03-18T01:24:15;100726.48;;;6.85;52.43
26436;BME280;15351;52.408;16.826;2023-03-18T01:27:02;100727.98;;;6.83;52.53
26436;BME280;15351;52.408;16.826;2023-03-18T01:29:43;100731.16;;;6.81;52.59
26436;BME280;15351;52.408;16.826;2023-03-18T01:32:19;100730.81;;;6.77;52.40
26436;BME280;15351;52.408;16.826;2023-03-18T01:34:47;100724.59;;;6.75;52.53
26436;BME280;15351;52.408;16.826;2023-03-18T01:37:20;100723.84;;;6.74;52.57
26436;BME280;15351;52.408;16.826;2023-03-18T01:40:27;100720.58;;;6.74;52.51
26436;BME280;15351;52.408;16.826;2023-03-18T01:43:39;100725.28;;;6.70;52.69
26436;BME280;15351;52.408;16.826;2023-03-18T01:46:36;100725.23;;;6.69;52.65
26436;BME280;15351;52.408;16.826;2023-03-18T01:49:16;100726.01;;;6.68;52.58
26436;BME280;15351;52.408;16.826;2023-03-18T01:58:20;100722.75;;;6.61;52.92
26436;BME280;15351;52.408;16.826;2023-03-18T02:01:05;100728.38;;;6.59;52.78
26436;BME280;15351;52.408;16.826;2023-03-18T02:03:46;100728.42;;;6.56;52.98
26436;BME280;15351;52.408;16.826;2023-03-18T02:06:14;100730.63;;;6.52;52.93
26436;BME280;15351;52.408;16.826;2023-03-18T02:08:44;100730.66;;;6.51;53.07
26436;BME280;15351;52.408;16.826;2023-03-18T02:11:12;100730.11;;;6.53;53.21
26436;BME280;15351;52.408;16.826;2023-03-18T02:13:59;100732.54;;;6.54;53.24
26436;BME280;15351;52.408;16.826;2023-03-18T02:17:09;100727.97;;;6.51;53.28
26436;BME280;15351;52.408;16.826;2023-03-18T02:20:26;100727.19;;;6.50;53.25
26436;BME280;15351;52.408;16.826;2023-03-18T02:27:00;100725.68;;;6.44;53.40
26436;BME280;15351;52.408;16.826;2023-03-18T02:29:49;100723.57;;;6.43;53.51
26436;BME280;15351;52.408;16.826;2023-03-18T02:32:39;100721.54;;;6.42;53.37
26436;BME280;15351;52.408;16.826;2023-03-18T02:35:10;100719.77;;;6.38;53.48
26436;BME280;15351;52.408;16.826;2023-03-18T02:37:37;100722.29;;;6.37;53.43
26436;BME280;15351;52.408;16.826;2023-03-18T02:40:39;100717.34;;;6.34;53.58
26436;BME280;15351;52.408;16.826;2023-03-18T02:43:31;100714.12;;;6.34;53.58
26436;BME280;15351;52.408;16.826;2023-03-18T02:46:32;100708.71;;;6.33;53.56
26436;BME280;15351;52.408;16.826;2023-03-18T02:49:21;100708.21;;;6.31;53.63
26436;BME280;15351;52.408;16.826;2023-03-18T02:52:07;100712.89;;;6.31;53.65
26436;BME280;15351;52.408;16.826;2023-03-18T02:54:37;100717.43;;;6.30;53.81
26436;BME280;15351;52.408;16.826;2023-03-18T02:57:05;100720.02;;;6.31;53.90
26436;BME280;15351;52.408;16.826;2023-03-18T02:59:53;100717.64;;;6.28;53.70
26436;BME280;15351;52.408;16.826;2023-03-18T03:02:21;100722.58;;;6.24;53.75
26436;BME280;15351;52.408;16.826;2023-03-18T03:04:50;100721.39;;;6.22;53.62
26436;BME280;15351;52.408;16.826;2023-03-18T03:07:19;100717.90;;;6.19;53.80
26436;BME280;15351;52.408;16.826;2023-03-18T03:10:15;100718.48;;;6.15;53.86
26436;BME280;15351;52.408;16.826;2023-03-18T03:13:06;100724.60;;;6.15;53.93
26436;BME280;15351;52.408;16.826;2023-03-18T03:15:44;100725.66;;;6.13;53.92
26436;BME280;15351;52.408;16.826;2023-03-18T03:18:22;100723.48;;;6.09;53.77
26436;BME280;15351;52.408;16.826;2023-03-18T03:20:52;100728.30;;;6.05;53.98
26436;BME280;15351;52.408;16.826;2023-03-18T03:23:24;100733.65;;;6.07;54.11
26436;BME280;15351;52.408;16.826;2023-03-18T03:25:50;100733.48;;;6.09;54.16
26436;BME280;15351;52.408;16.826;2023-03-18T03:28:19;100743.83;;;6.09;54.06
26436;BME280;15351;52.408;16.826;2023-03-18T03:30:47;100743.77;;;6.10;54.15
26436;BME280;15351;52.408;16.826;2023-03-18T03:33:36;100738.92;;;6.06;54.24
26436;BME280;15351;52.408;16.826;2023-03-18T03:36:20;100739.12;;;6.06;54.26
26436;BME280;15351;52.408;16.826;2023-03-18T03:38:58;100742.17;;;6.06;54.17
26436;BME280;15351;52.408;16.826;2023-03-18T03:41:24;100745.63;;;6.07;54.24
26436;BME280;15351;52.408;16.826;2023-03-18T03:44:03;100748.67;;;6.07;54.36
26436;BME280;15351;52.408;16.826;2023-03-18T03:47:04;100746.70;;;6.05;54.23
26436;BME280;15351;52.408;16.826;2023-03-18T03:49:54;100749.95;;;6.01;54.13
26436;BME280;15351;52.408;16.826;2023-03-18T03:52:24;100751.11;;;5.98;54.30
26436;BME280;15351;52.408;16.826;2023-03-18T03:55:05;100753.36;;;6.01;54.29
26436;BME280;15351;52.408;16.826;2023-03-18T03:57:35;100743.13;;;6.02;54.33
26436;BME280;15351;52.408;16.826;2023-03-18T04:00:31;100742.25;;;6.03;54.33
26436;BME280;15351;52.408;16.826;2023-03-18T04:03:06;100738.36;;;6.05;54.36
26436;BME280;15351;52.408;16.826;2023-03-18T04:05:33;100741.55;;;6.07;54.46
26436;BME280;15351;52.408;16.826;2023-03-18T04:08:02;100743.33;;;6.07;54.30
26436;BME280;15351;52.408;16.826;2023-03-18T04:10:40;100743.88;;;6.05;54.21
26436;BME280;15351;52.408;16.826;2023-03-18T04:13:20;100744.77;;;6.03;54.14
26436;BME280;15351;52.408;16.826;2023-03-18T04:15:52;100741.10;;;6.04;54.30
26436;BME280;15351;52.408;16.826;2023-03-18T04:18:43;100740.73;;;6.04;54.24
26436;BME280;15351;52.408;16.826;2023-03-18T04:21:11;100738.39;;;6.04;54.28
26436;BME280;15351;52.408;16.826;2023-03-18T04:24:02;100736.76;;;6.03;54.03
26436;BME280;15351;52.408;16.826;2023-03-18T04:26:29;100736.05;;;6.05;54.25
26436;BME280;15351;52.408;16.826;2023-03-18T04:29:04;100737.42;;;6.07;54.29
26436;BME280;15351;52.408;16.826;2023-03-18T04:31:34;100738.86;;;6.07;53.99
26436;BME280;15351;52.408;16.826;2023-03-18T04:34:01;100738.61;;;6.08;53.92
26436;BME280;15351;52.408;16.826;2023-03-18T04:36:28;100739.88;;;6.08;53.73
26436;BME280;15351;52.408;16.826;2023-03-18T04:38:58;100737.48;;;6.08;53.92
26436;BME280;15351;52.408;16.826;2023-03-18T04:41:47;100731.89;;;6.09;53.67
26436;BME280;15351;52.408;16.826;2023-03-18T04:44:15;100726.45;;;6.10;53.62
26436;BME280;15351;52.408;16.826;2023-03-18T04:46:56;100728.34;;;6.09;53.53
26436;BME280;15351;52.408;16.826;2023-03-18T04:49:34;100732.38;;;6.14;53.68
26436;BME280;15351;52.408;16.826;2023-03-18T04:52:26;100729.39;;;6.15;53.62
26436;BME280;15351;52.408;16.826;2023-03-18T04:55:04;100729.42;;;6.17;53.48
26436;BME280;15351;52.408;16.826;2023-03-18T04:57:58;100724.31;;;6.16;53.41
26436;BME280;15351;52.408;16.826;2023-03-18T05:00:39;100726.14;;;6.19;53.63
26436;BME280;15351;52.408;16.826;2023-03-18T05:03:35;100729.09;;;6.20;53.52
26436;BME280;15351;52.408;16.826;2023-03-18T05:06:28;100732.02;;;6.20;53.43
26436;BME280;15351;52.408;16.826;2023-03-18T05:09:09;100735.55;;;6.19;53.37
26436;BME280;15351;52.408;16.826;2023-03-18T05:12:13;100739.52;;;6.19;53.38
26436;BME280;15351;52.408;16.826;2023-03-18T05:14:55;100737.30;;;6.20;53.35
26436;BME280;15351;52.408;16.826;2023-03-18T05:17:29;100734.19;;;6.22;53.30
26436;BME280;15351;52.408;16.826;2023-03-18T05:20:03;100733.93;;;6.23;53.47
26436;BME280;15351;52.408;16.826;2023-03-18T05:22:46;100727.47;;;6.26;53.49
26436;BME280;15351;52.408;16.826;2023-03-18T05:25:47;100731.70;;;6.28;53.37
26436;BME280;15351;52.408;16.826;2023-03-18T05:28:38;100731.98;;;6.29;53.40
26436;BME280;15351;52.408;16.826;2023-03-18T05:31:15;100731.41;;;6.29;53.10
26436;BME280;15351;52.408;16.826;2023-03-18T05:33:50;100729.21;;;6.30;53.31
26436;BME280;15351;52.408;16.826;2023-03-18T05:36:23;100722.51;;;6.29;53.24
26436;BME280;15351;52.408;16.826;2023-03-18T05:39:40;100713.09;;;6.28;53.23
26436;BME280;15351;52.408;16.826;2023-03-18T05:42:10;100714.61;;;6.29;53.15
26436;BME280;15351;52.408;16.826;2023-03-18T05:44:45;100717.18;;;6.30;53.37
26436;BME280;15351;52.408;16.826;2023-03-18T05:47:14;100721.55;;;6.33;53.29
26436;BME280;15351;52.408;16.826;2023-03-18T05:49:54;100717.98;;;6.33;53.08
26436;BME280;15351;52.408;16.826;2023-03-18T05:52:31;100718.11;;;6.32;53.04
26436;BME280;15351;52.408;16.826;2023-03-18T05:55:39;100722.48;;;6.31;53.06
26436;BME280;15351;52.408;16.826;2023-03-18T05:58:17;100726.85;;;6.32;53.24
26436;BME280;15351;52.408;16.826;2023-03-18T06:01:26;100727.91;;;6.34;53.17
26436;BME280;15351;52.408;16.826;2023-03-18T06:04:02;100729.34;;;6.38;53.09
26436;BME280;15351;52.408;16.826;2023-03-18T06:06:31;100728.71;;;6.38;52.91
26436;BME280;15351;52.408;16.826;2023-03-18T06:09:00;100729.48;;;6.39;52.82
26436;BME280;15351;52.408;16.826;2023-03-18T06:11:32;100730.77;;;6.41;52.79
26436;BME280;15351;52.408;16.826;2023-03-18T06:14:33;100728.90;;;6.42;53.02
26436;BME280;15351;52.408;16.826;2023-03-18T06:17:08;100732.77;;;6.45;52.88
26436;BME280;15351;52.408;16.826;2023-03-18T06:19:41;100730.25;;;6.46;52.86
26436;BME280;15351;52.408;16.826;2023-03-18T06:22:20;100727.23;;;6.48;52.86
26436;BME280;15351;52.408;16.826;2023-03-18T06:24:47;100721.55;;;6.49;52.83
26436;BME280;15351;52.408;16.826;2023-03-18T06:27:14;100722.36;;;6.52;52.83
26436;BME280;15351;52.408;16.826;2023-03-18T06:29:45;100728.20;;;6.57;52.75
26436;BME280;15351;52.408;16.826;2023-03-18T06:32:53;100734.98;;;6.57;52.61
26436;BME280;15351;52.408;16.826;2023-03-18T06:35:24;100739.41;;;6.59;52.87
26436;BME280;15351;52.408;16.826;2023-03-18T06:37:57;100739.42;;;6.62;52.84
26436;BME280;15351;52.408;16.826;2023-03-18T06:41:07;100741.41;;;6.66;52.75
26436;BME280;15351;52.408;16.826;2023-03-18T06:44:05;100743.46;;;6.69;52.70
26436;BME280;15351;52.408;16.826;2023-03-18T06:47:18;100743.41;;;6.69;52.45
26436;BME280;15351;52.408;16.826;2023-03-18T06:50:10;100736.84;;;6.72;52.51
26436;BME280;15351;52.408;16.826;2023-03-18T06:52:38;100739.14;;;6.78;52.61
26436;BME280;15351;52.408;16.826;2023-03-18T06:55:34;100734.59;;;6.84;52.68
26436;BME280;15351;52.408;16.826;2023-03-18T06:58:54;100735.73;;;6.91;52.55
26436;BME280;15351;52.408;16.826;2023-03-18T07:01:50;100741.77;;;6.99;52.45
26436;BME280;15351;52.408;16.826;2023-03-18T07:04:39;100744.49;;;7.05;52.55
26436;BME280;15351;52.408;16.826;2023-03-18T07:07:06;100740.48;;;7.10;52.32
26436;BME280;15351;52.408;16.826;2023-03-18T07:10:02;100744.23;;;7.17;52.24
26436;BME280;15351;52.408;16.826;2023-03-18T07:12:34;100748.15;;;7.21;51.95
26436;BME280;15351;52.408;16.826;2023-03-18T07:15:11;100749.58;;;7.24;51.88
26436;BME280;15351;52.408;16.826;2023-03-18T07:18:41;100750.34;;;7.31;51.72
26436;BME280;15351;52.408;16.826;2023-03-18T07:21:25;100747.13;;;7.38;51.64
26436;BME280;15351;52.408;16.826;2023-03-18T07:24:16;100749.14;;;7.46;51.56
26436;BME280;15351;52.408;16.826;2023-03-18T07:26:55;100749.13;;;7.55;51.52
26436;BME280;15351;52.408;16.826;2023-03-18T07:29:22;100745.48;;;7.65;51.46
26436;BME280;15351;52.408;16.826;2023-03-18T07:31:49;100745.95;;;7.72;51.21
26436;BME280;15351;52.408;16.826;2023-03-18T07:34:21;100745.02;;;7.78;50.98
26436;BME280;15351;52.408;16.826;2023-03-18T07:37:01;100741.58;;;7.84;50.66
26436;BME280;15351;52.408;16.826;2023-03-18T07:39:54;100745.71;;;7.92;50.62
26436;BME280;15351;52.408;16.826;2023-03-18T07:42:21;100744.00;;;8.02;50.48
26436;BME280;15351;52.408;16.826;2023-03-18T07:44:50;100745.90;;;8.10;50.14
26436;BME280;15351;52.408;16.826;2023-03-18T07:47:22;100745.39;;;8.16;49.97
26436;BME280;15351;52.408;16.826;2023-03-18T07:49:51;100751.39;;;8.26;49.87
26436;BME280;15351;52.408;16.826;2023-03-18T07:52:47;100753.77;;;8.39;49.85
26436;BME280;15351;52.408;16.826;2023-03-18T07:55:17;100756.41;;;8.53;49.81
26436;BME280;15351;52.408;16.826;2023-03-18T07:58:03;100757.06;;;8.65;49.52
26436;BME280;15351;52.408;16.826;2023-03-18T08:00:31;100752.36;;;8.78;49.00
26436;BME280;15351;52.408;16.826;2023-03-18T08:02:59;100753.86;;;8.84;48.56
26436;BME280;15351;52.408;16.826;2023-03-18T08:05:39;100748.08;;;8.93;48.60
26436;BME280;15351;52.408;16.826;2023-03-18T08:08:06;100751.37;;;9.04;48.31
26436;BME280;15351;52.408;16.826;2023-03-18T08:10:34;100750.46;;;9.12;48.19
26436;BME280;15351;52.408;16.826;2023-03-18T08:15:58;100756.73;;;9.30;47.88
26436;BME280;15351;52.408;16.826;2023-03-18T08:18:31;100758.02;;;9.37;47.53
26436;BME280;15351;52.408;16.826;2023-03-18T08:20:59;100761.23;;;9.47;47.26
26436;BME280;15351;52.408;16.826;2023-03-18T08:23:31;100752.07;;;9.58;47.28
26436;BME280;15351;52.408;16.826;2023-03-18T08:26:06;100752.37;;;9.73;47.06
26436;BME280;15351;52.408;16.826;2023-03-18T08:28:33;100752.77;;;9.87;46.80
26436;BME280;15351;52.408;16.826;2023-03-18T08:31:05;100754.89;;;9.99;46.79
26436;BME280;15351;52.408;16.826;2023-03-18T08:33:42;100756.27;;;10.13;46.55
26436;BME280;15351;52.408;16.826;2023-03-18T08:36:38;100750.70;;;10.19;46.10
26436;BME280;15351;52.408;16.826;2023-03-18T08:39:07;100750.27;;;10.22;45.88
26436;BME280;15351;52.408;16.826;2023-03-18T08:42:01;100751.04;;;10.24;45.69
26436;BME280;15351;52.408;16.826;2023-03-18T08:44:37;100748.06;;;10.35;45.92
26436;BME280;15351;52.408;16.826;2023-03-18T08:47:06;100750.23;;;10.44;45.69
26436;BME280;15351;52.408;16.826;2023-03-18T08:49:38;100748.93;;;10.52;45.57
26436;BME280;15351;52.408;16.826;2023-03-18T08:52:35;100744.91;;;10.59;45.42
26436;BME280;15351;52.408;16.826;2023-03-18T08:55:31;100747.25;;;10.67;45.41
26436;BME280;15351;52.408;16.826;2023-03-18T08:58:03;100749.14;;;10.77;45.21
26436;BME280;15351;52.408;16.826;2023-03-18T09:00:54;100748.73;;;10.93;45.28
26436;BME280;15351;52.408;16.826;2023-03-18T09:03:44;100752.30;;;11.15;45.14
26436;BME280;15351;52.408;16.826;2023-03-18T09:06:12;100753.88;;;11.39;44.99
26436;BME280;15351;52.408;16.826;2023-03-18T09:09:07;100744.48;;;11.65;44.50
26436;BME280;15351;52.408;16.826;2023-03-18T09:11:34;100743.46;;;11.83;44.12
26436;BME280;15351;52.408;16.826;2023-03-18T09:14:15;100746.65;;;12.07;44.23
26436;BME280;15351;52.408;16.826;2023-03-18T09:17:04;100743.92;;;12.26;43.70
26436;BME280;15351;52.408;16.826;2023-03-18T09:19:52;100741.92;;;12.52;43.19
26436;BME280;15351;52.408;16.826;2023-03-18T09:22:20;100742.95;;;12.65;42.88
26436;BME280;15351;52.408;16.826;2023-03-18T09:24:53;100737.05;;;12.83;42.84
26436;BME280;15351;52.408;16.826;2023-03-18T09:27:24;100736.16;;;13.02;42.74
26436;BME280;15351;52.408;16.826;2023-03-18T09:30:11;100735.69;;;13.11;42.30
26436;BME280;15351;52.408;16.826;2023-03-18T09:32:43;100736.70;;;13.13;41.88
26436;BME280;15351;52.408;16.826;2023-03-18T09:35:33;100738.97;;;13.15;41.88
26436;BME280;15351;52.408;16.826;2023-03-18T09:39:02;100741.05;;;13.18;41.58
26436;BME280;15351;52.408;16.826;2023-03-18T09:42:14;100742.58;;;13.09;41.52
26436;BME280;15351;52.408;16.826;2023-03-18T09:48:04;100736.95;;;13.12;41.25
26436;BME280;15351;52.408;16.826;2023-03-18T09:51:02;100734.27;;;13.18;41.32
26436;BME280;15351;52.408;16.826;2023-03-18T09:54:07;100738.91;;;13.19;41.08
26436;BME280;15351;52.408;16.826;2023-03-18T09:56:37;100732.63;;;13.13;41.19
26436;BME280;15351;52.408;16.826;2023-03-18T09:59:46;100732.11;;;13.12;41.29
26436;BME280;15351;52.408;16.826;2023-03-18T10:02:36;100732.08;;;13.16;41.34
26436;BME280;15351;52.408;16.826;2023-03-18T10:05:22;100736.20;;;13.19;41.27
26436;BME280;15351;52.408;16.826;2023-03-18T10:07:55;100737.38;;;13.16;41.12
26436;BME280;15351;52.408;16.826;2023-03-18T10:10:45;100736.90;;;13.11;40.93
26436;BME280;15351;52.408;16.826;2023-03-18T10:13:39;100738.15;;;13.09;41.10
26436;BME280;15351;52.408;16.826;2023-03-18T10:17:19;100733.91;;;13.12;41.13
26436;BME280;15351;52.408;16.826;2023-03-18T10:21:01;100734.98;;;13.11;41.52
26436;BME280;15351;52.408;16.826;2023-03-18T10:34:33;100721.04;;;13.12;41.34
26436;BME280;15351;52.408;16.826;2023-03-18T10:40:18;100720.27;;;13.23;41.56
26436;BME280;15351;52.408;16.826;2023-03-18T10:42:48;100718.56;;;13.24;41.48
26436;BME280;15351;52.408;16.826;2023-03-18T10:45:22;100715.70;;;13.32;41.84
26436;BME280;15351;52.408;16.826;2023-03-18T10:47:57;100712.28;;;13.46;42.04
26436;BME280;15351;52.408;16.826;2023-03-18T10:51:23;100710.21;;;13.61;42.06
26436;BME280;15351;52.408;16.826;2023-03-18T10:54:23;100706.34;;;13.74;42.21
26436;BME280;15351;52.408;16.826;2023-03-18T10:57:26;100707.48;;;13.87;42.05
26436;BME280;15351;52.408;16.826;2023-03-18T11:00:44;100706.02;;;13.94;41.98
26436;BME280;15351;52.408;16.826;2023-03-18T11:03:24;100701.63;;;14.01;42.30
26436;BME280;15351;52.408;16.826;2023-03-18T11:06:31;100700.27;;;14.03;41.57
26436;BME280;15351;52.408;16.826;2023-03-18T11:09:19;100695.36;;;14.09;41.62
26436;BME280;15351;52.408;16.826;2023-03-18T11:12:06;100701.42;;;14.18;41.37
26436;BME280;15351;52.408;16.826;2023-03-18T11:15:35;100702.19;;;14.24;40.91
26436;BME280;15351;52.408;16.826;2023-03-18T11:18:15;100701.50;;;14.33;41.04
26436;BME280;15351;52.408;16.826;2023-03-18T11:20:57;100702.83;;;14.46;40.87
26436;BME280;15351;52.408;16.826;2023-03-18T11:23:57;100705.07;;;14.57;40.30
26436;BME280;15351;52.408;16.826;2023-03-18T11:27:01;100702.29;;;14.71;39.98
26436;BME280;15351;52.408;16.826;2023-03-18T11:30:14;100698.39;;;14.78;39.60
26436;BME280;15351;52.408;16.826;2023-03-18T11:33:30;100699.67;;;14.87;39.55
26436;BME280;15351;52.408;16.826;2023-03-18T11:36:17;100702.34;;;15.02;39.73
26436;BME280;15351;52.408;16.826;2023-03-18T11:38:56;100699.89;;;15.08;39.34
26436;BME280;15351;52.408;16.826;2023-03-18T11:41:29;100703.71;;;15.10;38.87
26436;BME280;15351;52.408;16.826;2023-03-18T11:44:00;100702.16;;;15.16;39.04
26436;BME280;15351;52.408;16.826;2023-03-18T11:46:46;100698.85;;;15.32;39.29
26436;BME280;15351;52.408;16.826;2023-03-18T11:49:34;100699.38;;;15.48;39.05
26436;BME280;15351;52.408;16.826;2023-03-18T11:52:31;100697.35;;;15.64;39.07
26436;BME280;15351;52.408;16.826;2023-03-18T11:55:40;100698.55;;;15.88;39.06
26436;BME280;15351;52.408;16.826;2023-03-18T11:58:51;100696.42;;;16.11;38.95
26436;BME280;15351;52.408;16.826;2023-03-18T12:01:44;100693.97;;;16.40;39.35
26436;BME280;15351;52.408;16.826;2023-03-18T12:04:33;100697.83;;;16.68;38.92
26436;BME280;15351;52.408;16.826;2023-03-18T12:07:38;100696.43;;;16.83;37.84
26436;BME280;15351;52.408;16.826;2023-03-18T12:13:28;100693.77;;;16.98;37.37
26436;BME280;15351;52.408;16.826;2023-03-18T12:19:00;100695.35;;;16.96;36.89
26436;BME280;15351;52.408;16.826;2023-03-18T12:21:44;100698.59;;;16.93;36.54
26436;BME280;15351;52.408;16.826;2023-03-18T12:24:50;100694.55;;;16.89;36.65
26436;BME280;15351;52.408;16.826;2023-03-18T12:27:47;100695.42;;;16.85;36.42
26436;BME280;15351;52.408;16.826;2023-03-18T12:30:39;100696.05;;;16.85;36.71
26436;BME280;15351;52.408;16.826;2023-03-18T12:33:35;100702.09;;;16.84;36.53
26436;BME280;15351;52.408;16.826;2023-03-18T12:39:26;100703.31;;;16.80;36.53
26436;BME280;15351;52.408;16.826;2023-03-18T12:42:27;100700.80;;;16.84;36.38
26436;BME280;15351;52.408;16.826;2023-03-18T12:45:11;100698.33;;;16.90;36.72
26436;BME280;15351;52.408;16.826;2023-03-18T12:50:17;100699.73;;;17.00;36.60
26436;BME280;15351;52.408;16.826;2023-03-18T12:53:04;100700.05;;;16.98;36.41
26436;BME280;15351;52.408;16.826;2023-03-18T12:55:38;100699.96;;;16.95;36.32
26436;BME280;15351;52.408;16.826;2023-03-18T12:58:11;100706.63;;;16.91;36.32
26436;BME280;15351;52.408;16.826;2023-03-18T13:03:40;100701.61;;;16.63;36.76
26436;BME280;15351;52.408;16.826;2023-03-18T13:10:23;100703.34;;;16.51;37.21
26436;BME280;15351;52.408;16.826;2023-03-18T13:13:06;100702.77;;;16.43;36.96
26436;BME280;15351;52.408;16.826;2023-03-18T13:15:56;100701.33;;;16.33;37.12
26436;BME280;15351;52.408;16.826;2023-03-18T13:18:45;100704.92;;;16.28;37.34
26436;BME280;15351;52.408;16.826;2023-03-18T13:21:21;100704.89;;;16.21;37.09
26436;BME280;15351;52.408;16.826;2023-03-18T13:30:05;100699.04;;;15.99;37.87
26436;BME280;15351;52.408;16.826;2023-03-18T13:33:08;100699.17;;;16.08;38.13
26436;BME280;15351;52.408;16.826;2023-03-18T13:39:14;100707.05;;;16.05;37.86
26436;BME280;15351;52.408;16.826;2023-03-18T13:42:34;100704.52;;;16.04;37.83
26436;BME280;15351;52.408;16.826;2023-03-18T13:44:44;100706.38;;;16.02;38.00
26436;BME280;15351;52.408;16.826;2023-03-18T13:47:38;100704.36;;;16.00;38.05
26436;BME280;15351;52.408;16.826;2023-03-18T13:50:30;100705.27;;;15.99;38.42
26436;BME280;15351;52.408;16.826;2023-03-18T13:53:29;100702.80;;;15.97;38.33
26436;BME280;15351;52.408;16.826;2023-03-18T14:01:31;100709.45;;;15.91;38.47
26436;BME280;15351;52.408;16.826;2023-03-18T14:03:57;100711.80;;;15.93;38.57
26436;BME280;15351;52.408;16.826;2023-03-18T14:07:24;100706.80;;;15.95;38.47
26436;BME280;15351;52.408;16.826;2023-03-18T14:14:00;100707.62;;;15.98;38.43
26436;BME280;15351;52.408;16.826;2023-03-18T14:16:55;100710.84;;;15.93;38.67
26436;BME280;15351;52.408;16.826;2023-03-18T14:19:25;100707.11;;;15.93;38.63
26436;BME280;15351;52.408;16.826;2023-03-18T14:22:33;100708.53;;;15.92;38.63
26436;BME280;15351;52.408;16.826;2023-03-18T14:28:26;100699.86;;;15.84;38.82
26436;BME280;15351;52.408;16.826;2023-03-18T14:31:50;100695.90;;;15.81;38.82
26436;BME280;15351;52.408;16.826;2023-03-18T14:35:45;100692.63;;;15.80;39.07
26436;BME280;15351;52.408;16.826;2023-03-18T14:40:48;100691.71;;;15.77;39.03
26436;BME280;15351;52.408;16.826;2023-03-18T14:43:40;100688.27;;;15.74;38.85
26436;BME280;15351;52.408;16.826;2023-03-18T14:46:36;100684.13;;;15.72;39.05
26436;BME280;15351;52.408;16.826;2023-03-18T14:52:47;100679.27;;;15.69;39.29
26436;BME280;15351;52.408;16.826;2023-03-18T14:55:30;100682.27;;;15.64;39.19
26436;BME280;15351;52.408;16.826;2023-03-18T14:57:57;100681.83;;;15.59;39.39
26436;BME280;15351;52.408;16.826;2023-03-18T15:01:09;100676.80;;;15.57;39.48
26436;BME280;15351;52.408;16.826;2023-03-18T15:03:40;100674.73;;;15.53;39.78
26436;BME280;15351;52.408;16.826;2023-03-18T15:06:29;100672.55;;;15.51;39.63
26436;BME280;15351;52.408;16.826;2023-03-18T15:09:33;100672.15;;;15.48;39.89
26436;BME280;15351;52.408;16.826;2023-03-18T15:12:26;100672.08;;;15.45;40.03
26436;BME280;15351;52.408;16.826;2023-03-18T15:15:08;100672.49;;;15.44;40.41
26436;BME280;15351;52.408;16.826;2023-03-18T15:17:47;100674.30;;;15.46;40.52
26436;BME280;15351;52.408;16.826;2023-03-18T15:20:24;100673.25;;;15.44;40.83
26436;BME280;15351;52.408;16.826;2023-03-18T15:22:51;100669.93;;;15.41;40.75
26436;BME280;15351;52.408;16.826;2023-03-18T15:25:42;100675.20;;;15.40;40.88
26436;BME280;15351;52.408;16.826;2023-03-18T15:28:29;100673.04;;;15.36;41.10
26436;BME280;15351;52.408;16.826;2023-03-18T15:30:59;100672.29;;;15.35;41.39